sensor_id;sensor_type;location;lat;lon;timestamp;pressure;altitude;pressure_sealevel;temperature;humidity
57562;BME280;43397;51.530;5.974;2022-12-20T00:00:20;101049.06;;;10.16;100.00
57562;BME280;43397;51.530;5.974;2022-12-20T00:02:45;101053.47;;;10.21;100.00
57562;BME280;43397;51.530;5.974;2022-12-20T00:05:13;101052.53;;;10.25;100.00
57562;BME280;43397;51.530;5.974;2022-12-20T00:07:38;101039.31;;;10.19;100.00
57562;BME280;43397;51.530;5.974;2022-12-20T00:10:05;101040.19;;;10.12;100.00
57562;BME280;43397;51.530;5.974;2022-12-20T00:12:31;101013.66;;;10.14;100.00
57562;BME280;43397;51.530;5.974;2022-12-20T00:14:57;101031.31;;;10.21;100.00
57562;BME280;43397;51.530;5.974;2022-12-20T00:17:22;101044.59;;;10.22;100.00
57562;BME280;43397;51.530;5.974;2022-12-20T00:19:48;101034.88;;;10.18;100.00
57562;BME280;43397;51.530;5.974;2022-12-20T00:22:15;101037.56;;;10.15;100.00
57562;BME280;43397;51.530;5.974;2022-12-20T00:24:41;101042.84;;;10.18;100.00
57562;BME280;43397;51.530;5.974;2022-12-20T00:27:06;101044.63;;;10.10;100.00
57562;BME280;43397;51.530;5.974;2022-12-20T00:29:32;101034.00;;;10.12;100.00
57562;BME280;43397;51.530;5.974;2022-12-20T00:31:58;101041.13;;;10.06;100.00
57562;BME280;43397;51.530;5.974;2022-12-20T00:34:23;101039.38;;;10.04;100.00
57562;BME280;43397;51.530;5.974;2022-12-20T00:36:49;101031.41;;;9.98;100.00
57562;BME280;43397;51.530;5.974;2022-12-20T00:39:16;101029.63;;;9.98;100.00
57562;BME280;43397;51.530;5.974;2022-12-20T00:41:42;101022.53;;;9.97;100.00
57562;BME280;43397;51.530;5.974;2022-12-20T00:44:07;101021.66;;;10.00;100.00
57562;BME280;43397;51.530;5.974;2022-12-20T00:46:33;101025.19;;;10.03;100.00
57562;BME280;43397;51.530;5.974;2022-12-20T00:48:59;101012.81;;;10.04;100.00
57562;BME280;43397;51.530;5.974;2022-12-20T00:51:27;101009.19;;;10.20;100.00
57562;BME280;43397;51.530;5.974;2022-12-20T00:53:53;101005.66;;;10.12;100.00
57562;BME280;43397;51.530;5.974;2022-12-20T00:56:20;101013.63;;;10.17;100.00
57562;BME280;43397;51.530;5.974;2022-12-20T00:58:46;101011.88;;;10.13;100.00
57562;BME280;43397;51.530;5.974;2022-12-20T01:01:22;101005.66;;;10.21;100.00
57562;BME280;43397;51.530;5.974;2022-12-20T01:03:48;101002.13;;;10.19;100.00
57562;BME280;43397;51.530;5.974;2022-12-20T01:06:14;101006.50;;;10.25;100.00
57562;BME280;43397;51.530;5.974;2022-12-20T01:08:40;101015.38;;;10.24;100.00
57562;BME280;43397;51.530;5.974;2022-12-20T01:11:09;101009.19;;;10.22;100.00
57562;BME280;43397;51.530;5.974;2022-12-20T01:13:39;101001.22;;;10.22;100.00
57562;BME280;43397;51.530;5.974;2022-12-20T01:16:08;100997.69;;;10.21;100.00
57562;BME280;43397;51.530;5.974;2022-12-20T01:18:34;100999.50;;;10.08;100.00
57562;BME280;43397;51.530;5.974;2022-12-20T01:21:01;101013.66;;;10.07;100.00
57562;BME280;43397;51.530;5.974;2022-12-20T01:23:28;101006.56;;;10.11;100.00
57562;BME280;43397;51.530;5.974;2022-12-20T01:25:54;101014.53;;;10.08;100.00
57562;BME280;43397;51.530;5.974;2022-12-20T01:28:21;101016.38;;;9.94;100.00
57562;BME280;43397;51.530;5.974;2022-12-20T01:30:48;101011.06;;;9.91;100.00
57562;BME280;43397;51.530;5.974;2022-12-20T01:33:14;101023.47;;;9.87;100.00
57562;BME280;43397;51.530;5.974;2022-12-20T01:35:40;101021.72;;;9.84;100.00
57562;BME280;43397;51.530;5.974;2022-12-20T01:38:05;101027.91;;;9.77;100.00
57562;BME280;43397;51.530;5.974;2022-12-20T01:40:31;101028.81;;;9.65;100.00
57562;BME280;43397;51.530;5.974;2022-12-20T01:42:57;101028.84;;;9.53;100.00
57562;BME280;43397;51.530;5.974;2022-12-20T01:45:26;101026.22;;;9.41;100.00
57562;BME280;43397;51.530;5.974;2022-12-20T01:47:54;101014.69;;;9.37;100.00
57562;BME280;43397;51.530;5.974;2022-12-20T01:50:21;101021.75;;;9.38;100.00
57562;BME280;43397;51.530;5.974;2022-12-20T01:52:47;101018.25;;;9.27;100.00
57562;BME280;43397;51.530;5.974;2022-12-20T01:55:16;101009.41;;;9.11;100.00
57562;BME280;43397;51.530;5.974;2022-12-20T01:57:47;101013.81;;;9.03;100.00
57562;BME280;43397;51.530;5.974;2022-12-20T02:00:14;101017.38;;;8.97;100.00
57562;BME280;43397;51.530;5.974;2022-12-20T02:02:41;101012.94;;;8.96;100.00
57562;BME280;43397;51.530;5.974;2022-12-20T02:05:08;101005.88;;;8.94;100.00
57562;BME280;43397;51.530;5.974;2022-12-20T02:07:35;101001.44;;;8.96;100.00
57562;BME280;43397;51.530;5.974;2022-12-20T02:10:03;101002.31;;;8.90;100.00
57562;BME280;43397;51.530;5.974;2022-12-20T02:12:34;100989.97;;;8.89;100.00
57562;BME280;43397;51.530;5.974;2022-12-20T02:17:53;100976.69;;;8.74;100.00
57562;BME280;43397;51.530;5.974;2022-12-20T02:20:37;100981.09;;;8.70;100.00
57562;BME280;43397;51.530;5.974;2022-12-20T02:23:57;100985.53;;;8.71;100.00
57562;BME280;43397;51.530;5.974;2022-12-20T02:26:48;100984.63;;;8.66;100.00
57562;BME280;43397;51.530;5.974;2022-12-20T02:29:22;100988.16;;;8.73;100.00
57562;BME280;43397;51.530;5.974;2022-12-20T02:31:55;100959.91;;;8.75;100.00
57562;BME280;43397;51.530;5.974;2022-12-20T02:34:25;100959.03;;;8.79;100.00
57562;BME280;43397;51.530;5.974;2022-12-20T02:36:52;100973.16;;;8.76;100.00
57562;BME280;43397;51.530;5.974;2022-12-20T02:39:20;100989.94;;;8.88;100.00
57562;BME280;43397;51.530;5.974;2022-12-20T02:41:49;100989.09;;;8.98;100.00
57562;BME280;43397;51.530;5.974;2022-12-20T02:44:18;100971.41;;;8.94;100.00
57562;BME280;43397;51.530;5.974;2022-12-20T02:46:45;100967.00;;;9.02;100.00
57562;BME280;43397;51.530;5.974;2022-12-20T02:49:15;100962.56;;;9.05;100.00
57562;BME280;43397;51.530;5.974;2022-12-20T02:51:46;100960.81;;;9.06;100.00
57562;BME280;43397;51.530;5.974;2022-12-20T02:54:12;100944.88;;;9.04;100.00
57562;BME280;43397;51.530;5.974;2022-12-20T02:56:42;100956.38;;;9.16;100.00
57562;BME280;43397;51.530;5.974;2022-12-20T02:59:12;100943.09;;;9.10;100.00
57562;BME280;43397;51.530;5.974;2022-12-20T03:01:44;100939.56;;;9.20;100.00
57562;BME280;43397;51.530;5.974;2022-12-20T03:04:10;100929.81;;;9.30;100.00
57562;BME280;43397;51.530;5.974;2022-12-20T03:06:38;100915.69;;;9.35;100.00
57562;BME280;43397;51.530;5.974;2022-12-20T03:09:04;100918.25;;;9.61;100.00
57562;BME280;43397;51.530;5.974;2022-12-20T03:11:29;100916.47;;;9.70;100.00
57562;BME280;43397;51.530;5.974;2022-12-20T03:13:55;100914.66;;;9.79;100.00
57562;BME280;43397;51.530;5.974;2022-12-20T03:16:21;100912.91;;;9.74;100.00
57562;BME280;43397;51.530;5.974;2022-12-20T03:18:46;100922.53;;;9.96;100.00
57562;BME280;43397;51.530;5.974;2022-12-20T03:21:12;100927.03;;;9.86;100.00
57562;BME280;43397;51.530;5.974;2022-12-20T03:23:39;100922.56;;;9.92;100.00
57562;BME280;43397;51.530;5.974;2022-12-20T03:26:05;100923.50;;;9.83;100.00
57562;BME280;43397;51.530;5.974;2022-12-20T03:28:31;100918.16;;;9.89;100.00
57562;BME280;43397;51.530;5.974;2022-12-20T03:30:56;100919.84;;;9.99;100.00
57562;BME280;43397;51.530;5.974;2022-12-20T03:33:22;100917.22;;;10.04;100.00
57562;BME280;43397;51.530;5.974;2022-12-20T03:35:48;100910.09;;;10.11;100.00
57562;BME280;43397;51.530;5.974;2022-12-20T03:38:13;100917.19;;;10.07;100.00
57562;BME280;43397;51.530;5.974;2022-12-20T03:40:40;100922.47;;;10.10;100.00
57562;BME280;43397;51.530;5.974;2022-12-20T03:43:06;100919.78;;;10.19;100.00
57562;BME280;43397;51.530;5.974;2022-12-20T03:45:32;100919.78;;;10.19;100.00
57562;BME280;43397;51.530;5.974;2022-12-20T03:47:57;100922.53;;;10.02;100.00
57562;BME280;43397;51.530;5.974;2022-12-20T03:50:23;100926.03;;;10.07;100.00
57562;BME280;43397;51.530;5.974;2022-12-20T03:52:49;100928.69;;;10.06;100.00
57562;BME280;43397;51.530;5.974;2022-12-20T03:55:15;100926.06;;;10.03;100.00
57562;BME280;43397;51.530;5.974;2022-12-20T03:57:42;100924.25;;;10.08;100.00
57562;BME280;43397;51.530;5.974;2022-12-20T04:00:08;100921.53;;;10.22;100.00
57562;BME280;43397;51.530;5.974;2022-12-20T04:02:34;100934.84;;;10.16;100.00
57562;BME280;43397;51.530;5.974;2022-12-20T04:05:00;100931.28;;;10.17;100.00
57562;BME280;43397;51.530;5.974;2022-12-20T04:07:26;100927.78;;;10.13;100.00
57562;BME280;43397;51.530;5.974;2022-12-20T04:09:51;100930.41;;;10.18;100.00
57562;BME280;43397;51.530;5.974;2022-12-20T04:12:17;100922.44;;;10.15;100.00
57562;BME280;43397;51.530;5.974;2022-12-20T04:14:44;100927.75;;;10.16;100.00
57562;BME280;43397;51.530;5.974;2022-12-20T04:17:10;100922.47;;;10.12;100.00
57562;BME280;43397;51.530;5.974;2022-12-20T04:19:36;100918.97;;;10.05;100.00
57562;BME280;43397;51.530;5.974;2022-12-20T04:22:01;100926.88;;;10.16;100.00
57562;BME280;43397;51.530;5.974;2022-12-20T04:24:27;100928.66;;;10.12;100.00
57562;BME280;43397;51.530;5.974;2022-12-20T04:26:53;100915.44;;;10.04;100.00
57562;BME280;43397;51.530;5.974;2022-12-20T04:29:18;100909.22;;;10.05;100.00
57562;BME280;43397;51.530;5.974;2022-12-20T04:31:46;100905.66;;;10.08;100.00
57562;BME280;43397;51.530;5.974;2022-12-20T04:34:11;100899.47;;;10.11;100.00
57562;BME280;43397;51.530;5.974;2022-12-20T04:36:37;100895.88;;;10.15;100.00
57562;BME280;43397;51.530;5.974;2022-12-20T04:39:03;100906.53;;;10.13;100.00
57562;BME280;43397;51.530;5.974;2022-12-20T04:41:28;100894.13;;;10.12;100.00
57562;BME280;43397;51.530;5.974;2022-12-20T04:43:56;100896.84;;;10.01;100.00
57562;BME280;43397;51.530;5.974;2022-12-20T04:46:23;100903.91;;;10.08;100.00
57562;BME280;43397;51.530;5.974;2022-12-20T04:48:51;100885.31;;;10.07;100.00
57562;BME280;43397;51.530;5.974;2022-12-20T04:51:17;100886.13;;;10.18;100.00
57562;BME280;43397;51.530;5.974;2022-12-20T04:53:43;100890.59;;;10.12;100.00
57562;BME280;43397;51.530;5.974;2022-12-20T04:56:09;100896.84;;;10.03;100.00
57562;BME280;43397;51.530;5.974;2022-12-20T04:58:34;100893.28;;;10.07;100.00
57562;BME280;43397;51.530;5.974;2022-12-20T05:01:00;100893.28;;;10.07;100.00
57562;BME280;43397;51.530;5.974;2022-12-20T05:03:26;100886.28;;;9.95;100.00
57562;BME280;43397;51.530;5.974;2022-12-20T05:05:53;100888.94;;;9.95;100.00
57562;BME280;43397;51.530;5.974;2022-12-20T05:08:19;100893.34;;;9.96;100.00
57562;BME280;43397;51.530;5.974;2022-12-20T05:10:44;100891.59;;;9.86;100.00
57562;BME280;43397;51.530;5.974;2022-12-20T05:13:11;100884.56;;;9.77;100.00
57562;BME280;43397;51.530;5.974;2022-12-20T05:15:37;100898.75;;;9.70;100.00
57562;BME280;43397;51.530;5.974;2022-12-20T05:18:03;100893.47;;;9.67;100.00
57562;BME280;43397;51.530;5.974;2022-12-20T05:20:29;100881.13;;;9.54;100.00
57562;BME280;43397;51.530;5.974;2022-12-20T05:22:58;100877.63;;;9.48;100.00
57562;BME280;43397;51.530;5.974;2022-12-20T05:25:23;100882.91;;;9.50;100.00
57562;BME280;43397;51.530;5.974;2022-12-20T05:27:49;100878.53;;;9.38;100.00
57562;BME280;43397;51.530;5.974;2022-12-20T05:30:15;100867.00;;;9.47;100.00
57562;BME280;43397;51.530;5.974;2022-12-20T05:32:41;100872.31;;;9.42;100.00
57562;BME280;43397;51.530;5.974;2022-12-20T05:35:07;100874.06;;;9.46;100.00
57562;BME280;43397;51.530;5.974;2022-12-20T05:37:33;100860.81;;;9.48;100.00
57562;BME280;43397;51.530;5.974;2022-12-20T05:40:00;100862.53;;;9.54;100.00
57562;BME280;43397;51.530;5.974;2022-12-20T05:42:26;100867.84;;;9.57;100.00
57562;BME280;43397;51.530;5.974;2022-12-20T05:44:51;100861.66;;;9.58;100.00
57562;BME280;43397;51.530;5.974;2022-12-20T05:47:17;100854.56;;;9.61;100.00
57562;BME280;43397;51.530;5.974;2022-12-20T05:49:43;100858.09;;;9.62;100.00
57562;BME280;43397;51.530;5.974;2022-12-20T05:52:08;100852.78;;;9.68;100.00
57562;BME280;43397;51.530;5.974;2022-12-20T05:54:34;100856.28;;;9.75;100.00
57562;BME280;43397;51.530;5.974;2022-12-20T05:57:01;100852.75;;;9.73;100.00
57562;BME280;43397;51.530;5.974;2022-12-20T05:59:27;100841.25;;;9.71;100.00
57562;BME280;43397;51.530;5.974;2022-12-20T06:01:52;100850.09;;;9.73;100.00
57562;BME280;43397;51.530;5.974;2022-12-20T06:04:18;100847.44;;;9.74;100.00
57562;BME280;43397;51.530;5.974;2022-12-20T06:06:44;100850.97;;;9.73;100.00
57562;BME280;43397;51.530;5.974;2022-12-20T06:09:09;100855.38;;;9.77;100.00
57562;BME280;43397;51.530;5.974;2022-12-20T06:11:35;100857.13;;;9.81;100.00
57562;BME280;43397;51.530;5.974;2022-12-20T06:14:03;100835.88;;;9.89;100.00
57562;BME280;43397;51.530;5.974;2022-12-20T06:16:28;100833.22;;;9.86;100.00
57562;BME280;43397;51.530;5.974;2022-12-20T06:18:54;100835.88;;;9.87;100.00
57562;BME280;43397;51.530;5.974;2022-12-20T06:21:20;100830.56;;;9.87;100.00
57562;BME280;43397;51.530;5.974;2022-12-20T06:23:46;100826.09;;;9.93;100.00
57562;BME280;43397;51.530;5.974;2022-12-20T06:26:11;100821.63;;;10.02;100.00
57562;BME280;43397;51.530;5.974;2022-12-20T06:28:37;100802.16;;;10.00;100.00
57562;BME280;43397;51.530;5.974;2022-12-20T06:31:04;100810.19;;;9.91;100.00
57562;BME280;43397;51.530;5.974;2022-12-20T06:33:30;100813.75;;;9.87;100.00
57562;BME280;43397;51.530;5.974;2022-12-20T06:35:55;100804.88;;;9.89;100.00
57562;BME280;43397;51.530;5.974;2022-12-20T06:38:21;100819.03;;;9.88;100.00
57562;BME280;43397;51.530;5.974;2022-12-20T06:40:47;100817.31;;;9.83;100.00
57562;BME280;43397;51.530;5.974;2022-12-20T06:43:12;100814.69;;;9.78;100.00
57562;BME280;43397;51.530;5.974;2022-12-20T06:45:38;100804.97;;;9.74;100.00
57562;BME280;43397;51.530;5.974;2022-12-20T06:48:05;100809.47;;;9.63;100.00
57562;BME280;43397;51.530;5.974;2022-12-20T06:50:32;100812.13;;;9.54;100.00
57562;BME280;43397;51.530;5.974;2022-12-20T06:52:58;100807.72;;;9.56;100.00
57562;BME280;43397;51.530;5.974;2022-12-20T06:55:23;100805.94;;;9.53;100.00
57562;BME280;43397;51.530;5.974;2022-12-20T06:57:49;100805.09;;;9.54;100.00
57562;BME280;43397;51.530;5.974;2022-12-20T07:00:16;100796.22;;;9.55;100.00
57562;BME280;43397;51.530;5.974;2022-12-20T07:02:41;100798.84;;;9.60;100.00
57562;BME280;43397;51.530;5.974;2022-12-20T07:05:08;100796.22;;;9.55;100.00
57562;BME280;43397;51.530;5.974;2022-12-20T07:07:34;100797.03;;;9.66;100.00
57562;BME280;43397;51.530;5.974;2022-12-20T07:10:00;100792.59;;;9.70;100.00
57562;BME280;43397;51.530;5.974;2022-12-20T07:12:25;100791.72;;;9.70;100.00
57562;BME280;43397;51.530;5.974;2022-12-20T07:14:51;100797.88;;;9.75;100.00
57562;BME280;43397;51.530;5.974;2022-12-20T07:17:17;100800.53;;;9.73;100.00
57562;BME280;43397;51.530;5.974;2022-12-20T07:19:42;100782.81;;;9.84;100.00
57562;BME280;43397;51.530;5.974;2022-12-20T07:22:09;100793.31;;;9.98;100.00
57562;BME280;43397;51.530;5.974;2022-12-20T07:24:35;100809.22;;;10.04;100.00
57562;BME280;43397;51.530;5.974;2022-12-20T07:27:01;100796.84;;;10.02;100.00
57562;BME280;43397;51.530;5.974;2022-12-20T07:29:27;100809.19;;;10.07;100.00
57562;BME280;43397;51.530;5.974;2022-12-20T07:31:53;100800.31;;;10.13;100.00
57562;BME280;43397;51.530;5.974;2022-12-20T07:34:19;100794.13;;;10.13;100.00
57562;BME280;43397;51.530;5.974;2022-12-20T07:36:45;100796.78;;;10.11;100.00
57562;BME280;43397;51.530;5.974;2022-12-20T07:39:12;100791.47;;;10.09;100.00
57562;BME280;43397;51.530;5.974;2022-12-20T07:41:38;100796.81;;;10.03;100.00
57562;BME280;43397;51.530;5.974;2022-12-20T07:44:04;100806.44;;;10.18;100.00
57562;BME280;43397;51.530;5.974;2022-12-20T07:46:30;100802.91;;;10.16;100.00
57562;BME280;43397;51.530;5.974;2022-12-20T07:48:56;100806.38;;;10.27;100.00
57562;BME280;43397;51.530;5.974;2022-12-20T07:51:23;100799.31;;;10.31;100.00
57562;BME280;43397;51.530;5.974;2022-12-20T07:53:52;100793.94;;;10.36;100.00
57562;BME280;43397;51.530;5.974;2022-12-20T07:56:21;100803.72;;;10.32;100.00
57562;BME280;43397;51.530;5.974;2022-12-20T07:58:47;100800.22;;;10.30;100.00
57562;BME280;43397;51.530;5.974;2022-12-20T08:01:15;100797.53;;;10.35;100.00
57562;BME280;43397;51.530;5.974;2022-12-20T08:03:43;100801.09;;;10.31;100.00
57562;BME280;43397;51.530;5.974;2022-12-20T08:06:09;100797.53;;;10.27;100.00
57562;BME280;43397;51.530;5.974;2022-12-20T08:08:37;100801.03;;;10.37;100.00
57562;BME280;43397;51.530;5.974;2022-12-20T08:11:05;100800.13;;;10.36;100.00
57562;BME280;43397;51.530;5.974;2022-12-20T08:13:32;100806.38;;;10.34;100.00
57562;BME280;43397;51.530;5.974;2022-12-20T08:15:58;100806.34;;;10.37;100.00
57562;BME280;43397;51.530;5.974;2022-12-20T08:18:24;100816.06;;;10.38;100.00
57562;BME280;43397;51.530;5.974;2022-12-20T08:20:50;100812.59;;;10.29;100.00
57562;BME280;43397;51.530;5.974;2022-12-20T08:23:16;100808.22;;;10.19;100.00
57562;BME280;43397;51.530;5.974;2022-12-20T08:25:41;100812.72;;;10.11;100.00
57562;BME280;43397;51.530;5.974;2022-12-20T08:28:07;100817.22;;;9.97;100.00
57562;BME280;43397;51.530;5.974;2022-12-20T08:30:34;100805.75;;;9.88;100.00
57562;BME280;43397;51.530;5.974;2022-12-20T08:33:00;100816.38;;;9.90;100.00
57562;BME280;43397;51.530;5.974;2022-12-20T08:35:26;100819.06;;;9.85;100.00
57562;BME280;43397;51.530;5.974;2022-12-20T08:37:51;100811.06;;;9.90;100.00
57562;BME280;43397;51.530;5.974;2022-12-20T08:40:17;100817.22;;;9.97;100.00
57562;BME280;43397;51.530;5.974;2022-12-20T08:42:43;100812.78;;;9.99;100.00
57562;BME280;43397;51.530;5.974;2022-12-20T08:45:09;100814.59;;;9.94;100.00
57562;BME280;43397;51.530;5.974;2022-12-20T08:47:36;100809.28;;;9.94;100.00
57562;BME280;43397;51.530;5.974;2022-12-20T08:50:03;100811.00;;;10.01;100.00
57562;BME280;43397;51.530;5.974;2022-12-20T08:52:29;100818.09;;;9.99;100.00
57562;BME280;43397;51.530;5.974;2022-12-20T08:54:55;100801.31;;;9.94;100.00
57562;BME280;43397;51.530;5.974;2022-12-20T08:57:21;100801.31;;;9.92;100.00
57562;BME280;43397;51.530;5.974;2022-12-20T08:59:47;100796.00;;;9.92;100.00
57562;BME280;43397;51.530;5.974;2022-12-20T09:02:12;100796.84;;;9.99;100.00
57562;BME280;43397;51.530;5.974;2022-12-20T09:04:39;100798.59;;;10.04;100.00
57562;BME280;43397;51.530;5.974;2022-12-20T09:07:05;100794.13;;;10.11;100.00
57562;BME280;43397;51.530;5.974;2022-12-20T09:09:31;100808.28;;;10.13;100.00
57562;BME280;43397;51.530;5.974;2022-12-20T09:11:56;100799.31;;;10.26;100.00
57562;BME280;43397;51.530;5.974;2022-12-20T09:14:22;100797.53;;;10.25;100.00
57562;BME280;43397;51.530;5.974;2022-12-20T09:16:48;100791.34;;;10.31;100.00
57562;BME280;43397;51.530;5.974;2022-12-20T09:19:14;100785.97;;;10.39;100.00
57562;BME280;43397;51.530;5.974;2022-12-20T09:21:41;100795.69;;;10.38;100.00
57562;BME280;43397;51.530;5.974;2022-12-20T09:24:08;100792.25;;;10.30;100.00
57562;BME280;43397;51.530;5.974;2022-12-20T09:26:33;100790.56;;;10.15;100.00
57562;BME280;43397;51.530;5.974;2022-12-20T09:28:59;100789.59;;;10.22;100.00
57562;BME280;43397;51.530;5.974;2022-12-20T09:31:25;100785.16;;;10.24;100.00
57562;BME280;43397;51.530;5.974;2022-12-20T09:33:52;100787.81;;;10.23;100.00
57562;BME280;43397;51.530;5.974;2022-12-20T09:36:19;100787.81;;;10.29;100.00
57562;BME280;43397;51.530;5.974;2022-12-20T09:38:47;100799.31;;;10.23;100.00
57562;BME280;43397;51.530;5.974;2022-12-20T09:41:24;100790.50;;;10.17;100.00
57562;BME280;43397;51.530;5.974;2022-12-20T09:43:50;100788.78;;;10.16;100.00
57562;BME280;43397;51.530;5.974;2022-12-20T09:46:16;100787.91;;;10.14;100.00
57562;BME280;43397;51.530;5.974;2022-12-20T09:48:43;100789.69;;;10.13;100.00
57562;BME280;43397;51.530;5.974;2022-12-20T09:51:17;100794.03;;;10.19;100.00
57562;BME280;43397;51.530;5.974;2022-12-20T09:53:56;100786.94;;;10.22;100.00
57562;BME280;43397;51.530;5.974;2022-12-20T09:56:26;100785.16;;;10.29;100.00
57562;BME280;43397;51.530;5.974;2022-12-20T09:58:58;100786.94;;;10.30;100.00
57562;BME280;43397;51.530;5.974;2022-12-20T10:01:27;100778.00;;;10.37;100.00
57562;BME280;43397;51.530;5.974;2022-12-20T10:03:55;100778.84;;;10.41;100.00
57562;BME280;43397;51.530;5.974;2022-12-20T10:06:27;100784.13;;;10.45;100.00
57562;BME280;43397;51.530;5.974;2022-12-20T10:08:58;100777.00;;;10.52;100.00
57562;BME280;43397;51.530;5.974;2022-12-20T10:11:40;100775.22;;;10.54;100.00
57562;BME280;43397;51.530;5.974;2022-12-20T10:14:19;100764.53;;;10.57;100.00
57562;BME280;43397;51.530;5.974;2022-12-20T10:16:52;100768.09;;;10.55;100.00
57562;BME280;43397;51.530;5.974;2022-12-20T10:19:33;100770.72;;;10.58;100.00
57562;BME280;43397;51.530;5.974;2022-12-20T10:22:08;100768.06;;;10.61;100.00
57562;BME280;43397;51.530;5.974;2022-12-20T10:24:40;100764.47;;;10.63;100.00
57562;BME280;43397;51.530;5.974;2022-12-20T10:27:11;100761.81;;;10.65;100.00
57562;BME280;43397;51.530;5.974;2022-12-20T10:29:39;100758.25;;;10.67;100.00
57562;BME280;43397;51.530;5.974;2022-12-20T10:32:11;100748.44;;;10.73;100.00
57562;BME280;43397;51.530;5.974;2022-12-20T10:34:37;100736.00;;;10.75;100.00
57562;BME280;43397;51.530;5.974;2022-12-20T10:37:11;100754.63;;;10.73;100.00
57562;BME280;43397;51.530;5.974;2022-12-20T10:39:41;100745.72;;;10.79;100.00
57562;BME280;43397;51.530;5.974;2022-12-20T10:42:23;100738.59;;;10.81;100.00
57562;BME280;43397;51.530;5.974;2022-12-20T10:44:49;100746.53;;;10.85;100.00
57562;BME280;43397;51.530;5.974;2022-12-20T10:47:23;100753.56;;;10.91;100.00
57562;BME280;43397;51.530;5.974;2022-12-20T10:50:07;100735.84;;;10.88;100.00
57562;BME280;43397;51.530;5.974;2022-12-20T10:52:33;100733.19;;;10.88;100.00
57562;BME280;43397;51.530;5.974;2022-12-20T10:55:00;100751.84;;;10.84;100.00
57562;BME280;43397;51.530;5.974;2022-12-20T10:57:27;100751.16;;;10.66;100.00
57562;BME280;43397;51.530;5.974;2022-12-20T10:59:55;100753.19;;;10.38;100.00
57562;BME280;43397;51.530;5.974;2022-12-20T11:02:27;100741.09;;;10.02;100.00
57562;BME280;43397;51.530;5.974;2022-12-20T11:04:57;100751.81;;;9.86;100.00
57562;BME280;43397;51.530;5.974;2022-12-20T11:07:25;100743.91;;;9.77;100.00
57562;BME280;43397;51.530;5.974;2022-12-20T11:09:53;100740.38;;;9.77;100.00
57562;BME280;43397;51.530;5.974;2022-12-20T11:12:21;100727.13;;;9.72;100.00
57562;BME280;43397;51.530;5.974;2022-12-20T11:14:47;100737.78;;;9.69;100.00
57562;BME280;43397;51.530;5.974;2022-12-20T11:17:21;100740.50;;;9.54;100.00
57562;BME280;43397;51.530;5.974;2022-12-20T11:20:00;100730.78;;;9.53;100.00
57562;BME280;43397;51.530;5.974;2022-12-20T11:22:38;100733.50;;;9.42;100.00
57562;BME280;43397;51.530;5.974;2022-12-20T11:25:19;100728.28;;;9.28;100.00
57562;BME280;43397;51.530;5.974;2022-12-20T11:27:57;100723.84;;;9.30;100.00
57562;BME280;43397;51.530;5.974;2022-12-20T11:30:34;100728.06;;;9.65;100.00
57562;BME280;43397;51.530;5.974;2022-12-20T11:33:27;100724.66;;;9.41;100.00
57562;BME280;43397;51.530;5.974;2022-12-20T11:36:01;100714.91;;;9.45;100.00
57562;BME280;43397;51.530;5.974;2022-12-20T11:38:39;100714.94;;;9.42;100.00
57562;BME280;43397;51.530;5.974;2022-12-20T11:41:18;100717.50;;;9.59;100.00
57562;BME280;43397;51.530;5.974;2022-12-20T11:43:58;100720.16;;;9.57;100.00
57562;BME280;43397;51.530;5.974;2022-12-20T11:46:35;100712.22;;;9.51;100.00
57562;BME280;43397;51.530;5.974;2022-12-20T11:49:33;100714.81;;;9.62;100.00
57562;BME280;43397;51.530;5.974;2022-12-20T11:52:07;100713.06;;;9.58;100.00
57562;BME280;43397;51.530;5.974;2022-12-20T11:54:37;100708.63;;;9.63;100.00
57562;BME280;43397;51.530;5.974;2022-12-20T11:57:12;100713.03;;;9.65;100.00
57562;BME280;43397;51.530;5.974;2022-12-20T11:59:45;100701.47;;;9.73;100.00
57562;BME280;43397;51.530;5.974;2022-12-20T12:02:14;100702.34;;;9.78;100.00
57562;BME280;43397;51.530;5.974;2022-12-20T12:04:45;100702.34;;;9.75;100.00
57562;BME280;43397;51.530;5.974;2022-12-20T12:07:15;100698.78;;;9.80;100.00
57562;BME280;43397;51.530;5.974;2022-12-20T12:09:49;100695.22;;;9.81;100.00
57562;BME280;43397;51.530;5.974;2022-12-20T12:12:23;100699.63;;;9.82;100.00
57562;BME280;43397;51.530;5.974;2022-12-20T12:14:55;100698.72;;;9.85;100.00
57562;BME280;43397;51.530;5.974;2022-12-20T12:17:26;100692.56;;;9.84;100.00
57562;BME280;43397;51.530;5.974;2022-12-20T12:19:55;100697.78;;;9.92;100.00
57562;BME280;43397;51.530;5.974;2022-12-20T12:22:32;100685.34;;;9.99;100.00
57562;BME280;43397;51.530;5.974;2022-12-20T12:25:03;100681.75;;;10.03;100.00
57562;BME280;43397;51.530;5.974;2022-12-20T12:27:33;100695.88;;;10.09;100.00
57562;BME280;43397;51.530;5.974;2022-12-20T12:30:00;100695.00;;;10.09;100.00
57562;BME280;43397;51.530;5.974;2022-12-20T12:32:30;100684.31;;;10.12;100.00
57562;BME280;43397;51.530;5.974;2022-12-20T12:35:10;100686.94;;;10.17;100.00
57562;BME280;43397;51.530;5.974;2022-12-20T12:38:01;100670.13;;;10.15;100.00
57562;BME280;43397;51.530;5.974;2022-12-20T12:43:50;100679.84;;;10.19;100.00
57562;BME280;43397;51.530;5.974;2022-12-20T12:46:23;100680.78;;;10.12;100.00
57562;BME280;43397;51.530;5.974;2022-12-20T12:48:56;100692.34;;;10.07;100.00
57562;BME280;43397;51.530;5.974;2022-12-20T12:51:26;100691.50;;;10.02;100.00
57562;BME280;43397;51.530;5.974;2022-12-20T12:54:01;100693.31;;;9.99;100.00
57562;BME280;43397;51.530;5.974;2022-12-20T12:56:38;100690.72;;;9.88;100.00